sensor_id;sensor_type;location;lat;lon;timestamp;P1;durP1;ratioP1;P2;durP2;ratioP2
19341;SDS011;9807;48.258;12.690;2022-11-20T00:49:54;15.73;;;10.10;;
19341;SDS011;9807;48.258;12.690;2022-11-20T00:52:21;15.07;;;10.23;;
19341;SDS011;9807;48.258;12.690;2022-11-20T00:54:48;23.53;;;15.10;;
19341;SDS011;9807;48.258;12.690;2022-11-20T00:57:14;25.37;;;16.50;;
19341;SDS011;9807;48.258;12.690;2022-11-20T00:59:40;27.83;;;18.00;;
19341;SDS011;9807;48.258;12.690;2022-11-20T01:02:09;33.03;;;17.87;;
19341;SDS011;9807;48.258;12.690;2022-11-20T01:04:35;18.17;;;11.23;;
19341;SDS011;9807;48.258;12.690;2022-11-20T01:07:02;25.00;;;15.10;;
19341;SDS011;9807;48.258;12.690;2022-11-20T01:09:29;34.67;;;19.80;;
19341;SDS011;9807;48.258;12.690;2022-11-20T01:11:55;33.93;;;20.83;;
19341;SDS011;9807;48.258;12.690;2022-11-20T01:14:21;31.90;;;19.80;;
19341;SDS011;9807;48.258;12.690;2022-11-20T01:16:48;30.03;;;18.93;;
19341;SDS011;9807;48.258;12.690;2022-11-20T01:19:25;20.20;;;12.77;;
19341;SDS011;9807;48.258;12.690;2022-11-20T01:21:51;24.27;;;16.03;;
19341;SDS011;9807;48.258;12.690;2022-11-20T01:24:18;26.10;;;16.13;;
19341;SDS011;9807;48.258;12.690;2022-11-20T01:26:47;29.10;;;16.90;;
19341;SDS011;9807;48.258;12.690;2022-11-20T01:29:18;27.53;;;16.93;;
19341;SDS011;9807;48.258;12.690;2022-11-20T01:31:45;27.93;;;18.30;;
19341;SDS011;9807;48.258;12.690;2022-11-20T01:34:13;25.07;;;16.13;;
19341;SDS011;9807;48.258;12.690;2022-11-20T01:36:41;25.57;;;16.67;;
19341;SDS011;9807;48.258;12.690;2022-11-20T01:39:12;20.50;;;12.40;;
19341;SDS011;9807;48.258;12.690;2022-11-20T01:41:40;27.80;;;16.97;;
19341;SDS011;9807;48.258;12.690;2022-11-20T01:47:34;19.47;;;12.40;;
19341;SDS011;9807;48.258;12.690;2022-11-20T01:52:34;8.90;;;5.73;;
19341;SDS011;9807;48.258;12.690;2022-11-20T11:37:15;2.40;;;1.80;;
19341;SDS011;9807;48.258;12.690;2022-11-20T16:10:52;2.20;;;1.80;;
19341;SDS011;9807;48.258;12.690;2022-11-20T16:13:18;3.20;;;2.10;;
19341;SDS011;9807;48.258;12.690;2022-11-20T16:16:06;5.33;;;2.30;;
19341;SDS011;9807;48.258;12.690;2022-11-20T16:18:43;3.47;;;2.60;;
19341;SDS011;9807;48.258;12.690;2022-11-20T16:21:11;4.87;;;3.60;;
19341;SDS011;9807;48.258;12.690;2022-11-20T16:23:38;4.47;;;3.60;;
19341;SDS011;9807;48.258;12.690;2022-11-20T16:26:11;3.60;;;2.73;;
19341;SDS011;9807;48.258;12.690;2022-11-20T16:28:38;3.13;;;2.70;;
19341;SDS011;9807;48.258;12.690;2022-11-20T16:31:11;5.37;;;3.20;;
19341;SDS011;9807;48.258;12.690;2022-11-20T16:33:39;4.93;;;3.30;;
19341;SDS011;9807;48.258;12.690;2022-11-20T16:36:09;6.00;;;3.30;;
19341;SDS011;9807;48.258;12.690;2022-11-20T16:38:36;4.83;;;3.70;;
19341;SDS011;9807;48.258;12.690;2022-11-20T16:41:02;5.47;;;2.90;;
19341;SDS011;9807;48.258;12.690;2022-11-20T16:43:29;5.23;;;3.63;;
19341;SDS011;9807;48.258;12.690;2022-11-20T16:45:55;7.23;;;4.00;;
19341;SDS011;9807;48.258;12.690;2022-11-20T16:48:21;6.50;;;3.77;;
19341;SDS011;9807;48.258;12.690;2022-11-20T16:50:51;5.80;;;3.83;;
19341;SDS011;9807;48.258;12.690;2022-11-20T16:53:18;8.57;;;4.70;;
19341;SDS011;9807;48.258;12.690;2022-11-20T16:55:46;17.07;;;10.63;;
19341;SDS011;9807;48.258;12.690;2022-11-20T16:58:17;9.00;;;7.13;;
19341;SDS011;9807;48.258;12.690;2022-11-20T17:00:43;9.70;;;6.63;;
19341;SDS011;9807;48.258;12.690;2022-11-20T17:03:09;9.03;;;5.13;;
19341;SDS011;9807;48.258;12.690;2022-11-20T17:05:35;9.07;;;6.67;;
19341;SDS011;9807;48.258;12.690;2022-11-20T17:08:01;7.97;;;5.30;;
19341;SDS011;9807;48.258;12.690;2022-11-20T17:10:29;7.07;;;4.60;;
19341;SDS011;9807;48.258;12.690;2022-11-20T17:12:55;6.10;;;3.97;;
19341;SDS011;9807;48.258;12.690;2022-11-20T17:15:20;5.67;;;4.07;;
19341;SDS011;9807;48.258;12.690;2022-11-20T17:17:46;21.77;;;13.57;;
19341;SDS011;9807;48.258;12.690;2022-11-20T17:20:12;12.93;;;8.30;;
19341;SDS011;9807;48.258;12.690;2022-11-20T17:22:38;6.70;;;4.27;;
19341;SDS011;9807;48.258;12.690;2022-11-20T17:25:04;5.77;;;3.37;;
19341;SDS011;9807;48.258;12.690;2022-11-20T17:27:32;6.13;;;3.00;;
19341;SDS011;9807;48.258;12.690;2022-11-20T17:29:58;6.60;;;3.27;;
19341;SDS011;9807;48.258;12.690;2022-11-20T17:32:24;4.73;;;3.03;;
19341;SDS011;9807;48.258;12.690;2022-11-20T17:34:49;5.73;;;3.37;;
19341;SDS011;9807;48.258;12.690;2022-11-20T17:37:15;4.70;;;3.30;;
19341;SDS011;9807;48.258;12.690;2022-11-20T17:39:41;5.60;;;3.50;;
19341;SDS011;9807;48.258;12.690;2022-11-20T17:42:09;12.87;;;5.97;;
19341;SDS011;9807;48.258;12.690;2022-11-20T17:44:53;10.87;;;6.83;;
19341;SDS011;9807;48.258;12.690;2022-11-20T17:47:20;8.57;;;4.17;;
19341;SDS011;9807;48.258;12.690;2022-11-20T17:49:46;5.60;;;3.93;;
19341;SDS011;9807;48.258;12.690;2022-11-20T17:52:12;5.33;;;3.80;;
19341;SDS011;9807;48.258;12.690;2022-11-20T17:54:37;4.17;;;3.23;;
19341;SDS011;9807;48.258;12.690;2022-11-20T17:57:04;5.10;;;2.93;;
19341;SDS011;9807;48.258;12.690;2022-11-20T17:59:52;3.43;;;2.93;;
19341;SDS011;9807;48.258;12.690;2022-11-20T18:02:18;4.33;;;3.03;;
19341;SDS011;9807;48.258;12.690;2022-11-20T18:04:44;4.00;;;2.53;;
19341;SDS011;9807;48.258;12.690;2022-11-20T18:07:10;2.30;;;2.10;;
19341;SDS011;9807;48.258;12.690;2022-11-20T18:09:36;3.33;;;2.57;;
19341;SDS011;9807;48.258;12.690;2022-11-20T18:12:01;3.43;;;2.27;;
19341;SDS011;9807;48.258;12.690;2022-11-20T18:14:27;4.23;;;2.67;;
19341;SDS011;9807;48.258;12.690;2022-11-20T18:17:00;3.33;;;2.23;;
19341;SDS011;9807;48.258;12.690;2022-11-20T18:19:30;3.37;;;2.10;;
19341;SDS011;9807;48.258;12.690;2022-11-20T18:21:59;4.17;;;2.70;;
19341;SDS011;9807;48.258;12.690;2022-11-20T18:24:28;2.90;;;2.27;;
19341;SDS011;9807;48.258;12.690;2022-11-20T18:26:54;5.90;;;3.50;;
19341;SDS011;9807;48.258;12.690;2022-11-20T18:29:21;5.30;;;3.80;;
19341;SDS011;9807;48.258;12.690;2022-11-20T18:31:47;3.53;;;2.60;;
19341;SDS011;9807;48.258;12.690;2022-11-20T18:34:14;2.67;;;2.40;;
19341;SDS011;9807;48.258;12.690;2022-11-20T18:36:40;3.23;;;2.50;;
19341;SDS011;9807;48.258;12.690;2022-11-20T18:39:08;3.40;;;2.70;;
19341;SDS011;9807;48.258;12.690;2022-11-20T18:41:36;4.27;;;2.63;;
19341;SDS011;9807;48.258;12.690;2022-11-20T18:44:21;4.10;;;2.57;;
19341;SDS011;9807;48.258;12.690;2022-11-20T18:47:11;6.47;;;4.10;;
19341;SDS011;9807;48.258;12.690;2022-11-20T18:49:42;13.37;;;7.83;;
19341;SDS011;9807;48.258;12.690;2022-11-20T18:52:15;10.43;;;6.20;;
19341;SDS011;9807;48.258;12.690;2022-11-20T18:54:46;4.90;;;3.63;;
19341;SDS011;9807;48.258;12.690;2022-11-20T18:57:11;5.67;;;3.77;;
19341;SDS011;9807;48.258;12.690;2022-11-20T18:59:41;6.90;;;4.77;;
19341;SDS011;9807;48.258;12.690;2022-11-20T19:02:11;5.93;;;3.80;;
19341;SDS011;9807;48.258;12.690;2022-11-20T19:04:38;10.33;;;5.47;;
19341;SDS011;9807;48.258;12.690;2022-11-20T19:07:04;9.63;;;5.07;;
19341;SDS011;9807;48.258;12.690;2022-11-20T19:09:35;11.07;;;6.93;;
19341;SDS011;9807;48.258;12.690;2022-11-20T19:12:03;14.67;;;5.93;;
19341;SDS011;9807;48.258;12.690;2022-11-20T19:14:29;5.30;;;3.60;;
19341;SDS011;9807;48.258;12.690;2022-11-20T19:16:55;11.90;;;5.87;;
19341;SDS011;9807;48.258;12.690;2022-11-20T19:19:21;9.67;;;5.83;;
19341;SDS011;9807;48.258;12.690;2022-11-20T19:21:46;8.37;;;5.40;;
19341;SDS011;9807;48.258;12.690;2022-11-20T19:24:12;14.23;;;7.57;;
19341;SDS011;9807;48.258;12.690;2022-11-20T19:26:38;13.23;;;8.30;;
19341;SDS011;9807;48.258;12.690;2022-11-20T19:29:04;14.67;;;9.13;;
19341;SDS011;9807;48.258;12.690;2022-11-20T19:31:33;11.40;;;7.53;;
19341;SDS011;9807;48.258;12.690;2022-11-20T19:34:00;11.53;;;7.67;;
19341;SDS011;9807;48.258;12.690;2022-11-20T19:36:28;7.70;;;5.03;;
19341;SDS011;9807;48.258;12.690;2022-11-20T19:38:56;6.23;;;4.60;;
19341;SDS011;9807;48.258;12.690;2022-11-20T19:41:24;7.77;;;5.00;;
19341;SDS011;9807;48.258;12.690;2022-11-20T19:43:59;10.57;;;7.07;;
19341;SDS011;9807;48.258;12.690;2022-11-20T19:46:39;8.93;;;5.53;;
19341;SDS011;9807;48.258;12.690;2022-11-20T19:49:10;8.57;;;4.80;;
19341;SDS011;9807;48.258;12.690;2022-11-20T19:51:38;7.00;;;5.00;;
19341;SDS011;9807;48.258;12.690;2022-11-20T19:54:10;9.83;;;6.43;;
19341;SDS011;9807;48.258;12.690;2022-11-20T19:56:36;12.07;;;7.90;;
19341;SDS011;9807;48.258;12.690;2022-11-20T19:59:02;8.77;;;6.20;;
19341;SDS011;9807;48.258;12.690;2022-11-20T20:01:29;8.53;;;5.50;;
19341;SDS011;9807;48.258;12.690;2022-11-20T20:03:56;7.73;;;5.33;;
19341;SDS011;9807;48.258;12.690;2022-11-20T20:06:26;8.40;;;5.77;;
19341;SDS011;9807;48.258;12.690;2022-11-20T20:08:53;7.27;;;5.23;;
19341;SDS011;9807;48.258;12.690;2022-11-20T20:11:22;7.83;;;5.17;;
19341;SDS011;9807;48.258;12.690;2022-11-20T20:13:49;7.37;;;5.10;;
19341;SDS011;9807;48.258;12.690;2022-11-20T20:16:16;9.10;;;5.80;;
19341;SDS011;9807;48.258;12.690;2022-11-20T20:18:44;8.37;;;6.20;;
19341;SDS011;9807;48.258;12.690;2022-11-20T20:21:11;12.77;;;8.03;;
19341;SDS011;9807;48.258;12.690;2022-11-20T20:23:39;9.00;;;5.30;;
19341;SDS011;9807;48.258;12.690;2022-11-20T20:26:06;8.87;;;5.50;;
19341;SDS011;9807;48.258;12.690;2022-11-20T20:28:34;7.77;;;5.37;;
19341;SDS011;9807;48.258;12.690;2022-11-20T20:33:54;8.93;;;6.10;;
19341;SDS011;9807;48.258;12.690;2022-11-20T20:36:20;8.07;;;5.53;;
19341;SDS011;9807;48.258;12.690;2022-11-20T20:38:50;7.90;;;5.83;;
19341;SDS011;9807;48.258;12.690;2022-11-20T20:41:20;7.70;;;4.97;;
19341;SDS011;9807;48.258;12.690;2022-11-20T20:43:48;7.07;;;5.10;;
19341;SDS011;9807;48.258;12.690;2022-11-20T20:46:33;8.20;;;5.40;;
19341;SDS011;9807;48.258;12.690;2022-11-20T20:48:59;8.37;;;5.17;;
19341;SDS011;9807;48.258;12.690;2022-11-20T20:51:25;6.73;;;4.90;;
19341;SDS011;9807;48.258;12.690;2022-11-20T20:53:51;8.07;;;4.97;;
19341;SDS011;9807;48.258;12.690;2022-11-20T20:56:17;7.23;;;5.40;;
19341;SDS011;9807;48.258;12.690;2022-11-20T20:58:43;8.63;;;4.90;;
19341;SDS011;9807;48.258;12.690;2022-11-20T21:01:10;6.07;;;4.83;;
19341;SDS011;9807;48.258;12.690;2022-11-20T21:03:37;7.57;;;5.67;;
19341;SDS011;9807;48.258;12.690;2022-11-20T21:06:03;6.63;;;4.60;;
19341;SDS011;9807;48.258;12.690;2022-11-20T21:08:32;6.90;;;4.87;;
19341;SDS011;9807;48.258;12.690;2022-11-20T21:11:03;7.30;;;4.90;;
19341;SDS011;9807;48.258;12.690;2022-11-20T21:13:31;6.30;;;4.47;;
19341;SDS011;9807;48.258;12.690;2022-11-20T21:15:58;5.90;;;4.07;;
19341;SDS011;9807;48.258;12.690;2022-11-20T21:18:24;7.70;;;4.63;;
19341;SDS011;9807;48.258;12.690;2022-11-20T21:20:50;5.70;;;4.40;;
19341;SDS011;9807;48.258;12.690;2022-11-20T21:23:36;7.10;;;4.30;;
19341;SDS011;9807;48.258;12.690;2022-11-20T21:26:04;5.17;;;4.00;;
19341;SDS011;9807;48.258;12.690;2022-11-20T21:28:34;6.17;;;4.30;;
19341;SDS011;9807;48.258;12.690;2022-11-20T21:31:09;5.23;;;3.93;;
19341;SDS011;9807;48.258;12.690;2022-11-20T21:33:39;4.63;;;3.53;;
19341;SDS011;9807;48.258;12.690;2022-11-20T21:36:08;5.40;;;4.03;;
19341;SDS011;9807;48.258;12.690;2022-11-20T21:38:35;5.43;;;3.90;;
19341;SDS011;9807;48.258;12.690;2022-11-20T21:41:05;7.67;;;4.10;;
19341;SDS011;9807;48.258;12.690;2022-11-20T21:43:34;4.37;;;3.57;;
19341;SDS011;9807;48.258;12.690;2022-11-20T21:46:11;7.63;;;3.97;;
19341;SDS011;9807;48.258;12.690;2022-11-20T21:48:38;8.13;;;4.43;;
19341;SDS011;9807;48.258;12.690;2022-11-20T21:51:10;5.13;;;3.80;;
19341;SDS011;9807;48.258;12.690;2022-11-20T21:53:37;4.83;;;3.67;;
19341;SDS011;9807;48.258;12.690;2022-11-20T21:56:04;6.07;;;3.87;;
19341;SDS011;9807;48.258;12.690;2022-11-20T21:58:34;3.83;;;3.27;;
19341;SDS011;9807;48.258;12.690;2022-11-20T22:01:13;5.20;;;3.60;;
19341;SDS011;9807;48.258;12.690;2022-11-20T22:03:40;4.37;;;3.60;;
19341;SDS011;9807;48.258;12.690;2022-11-20T22:06:09;4.60;;;3.10;;
19341;SDS011;9807;48.258;12.690;2022-11-20T22:08:35;4.00;;;3.17;;
19341;SDS011;9807;48.258;12.690;2022-11-20T22:11:02;4.93;;;3.50;;
19341;SDS011;9807;48.258;12.690;2022-11-20T22:13:29;5.63;;;3.53;;
19341;SDS011;9807;48.258;12.690;2022-11-20T22:16:14;4.80;;;3.47;;
19341;SDS011;9807;48.258;12.690;2022-11-20T22:18:49;4.67;;;3.60;;
19341;SDS011;9807;48.258;12.690;2022-11-20T22:21:19;5.00;;;3.70;;
19341;SDS011;9807;48.258;12.690;2022-11-20T22:23:46;4.60;;;3.63;;
19341;SDS011;9807;48.258;12.690;2022-11-20T22:26:13;4.17;;;3.30;;
19341;SDS011;9807;48.258;12.690;2022-11-20T22:28:41;4.20;;;3.00;;
19341;SDS011;9807;48.258;12.690;2022-11-20T22:31:08;4.97;;;3.80;;
19341;SDS011;9807;48.258;12.690;2022-11-20T22:33:37;4.07;;;3.07;;
19341;SDS011;9807;48.258;12.690;2022-11-20T22:38:56;6.23;;;4.00;;
19341;SDS011;9807;48.258;12.690;2022-11-20T22:41:23;6.47;;;4.17;;
19341;SDS011;9807;48.258;12.690;2022-11-20T22:43:58;5.13;;;3.90;;
19341;SDS011;9807;48.258;12.690;2022-11-20T22:46:29;5.57;;;4.23;;
19341;SDS011;9807;48.258;12.690;2022-11-20T22:48:57;6.00;;;4.50;;
19341;SDS011;9807;48.258;12.690;2022-11-20T22:51:29;6.63;;;4.60;;
19341;SDS011;9807;48.258;12.690;2022-11-20T22:53:56;9.23;;;4.67;;
19341;SDS011;9807;48.258;12.690;2022-11-20T22:56:22;7.17;;;4.20;;
19341;SDS011;9807;48.258;12.690;2022-11-20T22:58:51;6.90;;;5.00;;
19341;SDS011;9807;48.258;12.690;2022-11-20T23:01:19;9.17;;;5.60;;
19341;SDS011;9807;48.258;12.690;2022-11-20T23:03:56;9.20;;;5.30;;
19341;SDS011;9807;48.258;12.690;2022-11-20T23:06:25;7.73;;;5.43;;
19341;SDS011;9807;48.258;12.690;2022-11-20T23:08:55;8.83;;;5.57;;
19341;SDS011;9807;48.258;12.690;2022-11-20T23:11:25;8.30;;;5.70;;
19341;SDS011;9807;48.258;12.690;2022-11-20T23:13:52;10.27;;;5.37;;
19341;SDS011;9807;48.258;12.690;2022-11-20T23:16:21;10.50;;;5.67;;
19341;SDS011;9807;48.258;12.690;2022-11-20T23:19:10;8.43;;;4.50;;
19341;SDS011;9807;48.258;12.690;2022-11-20T23:21:38;7.33;;;5.10;;
19341;SDS011;9807;48.258;12.690;2022-11-20T23:24:08;10.50;;;5.27;;
19341;SDS011;9807;48.258;12.690;2022-11-20T23:26:35;7.00;;;4.60;;
19341;SDS011;9807;48.258;12.690;2022-11-20T23:29:02;8.20;;;4.87;;
19341;SDS011;9807;48.258;12.690;2022-11-20T23:31:29;5.43;;;3.83;;
19341;SDS011;9807;48.258;12.690;2022-11-20T23:33:56;5.27;;;4.00;;
19341;SDS011;9807;48.258;12.690;2022-11-20T23:36:22;6.43;;;3.80;;
19341;SDS011;9807;48.258;12.690;2022-11-20T23:38:48;6.63;;;3.90;;
19341;SDS011;9807;48.258;12.690;2022-11-20T23:41:14;7.63;;;3.80;;
19341;SDS011;9807;48.258;12.690;2022-11-20T23:43:40;9.77;;;3.40;;
19341;SDS011;9807;48.258;12.690;2022-11-20T23:46:09;5.30;;;3.20;;
19341;SDS011;9807;48.258;12.690;2022-11-20T23:48:37;5.10;;;2.80;;
19341;SDS011;9807;48.258;12.690;2022-11-20T23:51:03;4.33;;;2.80;;
19341;SDS011;9807;48.258;12.690;2022-11-20T23:53:33;4.27;;;2.23;;
19341;SDS011;9807;48.258;12.690;2022-11-20T23:56:00;4.63;;;2.60;;
19341;SDS011;9807;48.258;12.690;2022-11-20T23:58:45;2.73;;;2.20;;
